Nurlat, Russia
Current Conditions -  °F | °C
As of 7:30 PM on Monday 26 Jan 2015 (Local Time) from UWWW Reporting Station
Clear Clear  
Wind Chill: -22°   Ceiling: Unl
Heat Index: -8°   Visibility: 6mi
Dew Point: -13°   Wind: 7mph
Humidity: 77%   Direction: 120°ESE
Pressure: 30.65"   Gusts: NA
Location:  54.43°N, 50.77°E
Report Text: UWWW 261630Z 12003MPS CAVOK M22/M25 Q1038 23820545 15//99//NOSIG RMK QFE767/1023
Loading
Personal Weather Stations






























Interactive Weather Map New forecast layout! Learn more

10-Day Weather Forecast

Advertisements
Track Severe Weather on mobile